createdAt,value
2022-09-25T00:02:33.472Z,10.85
2022-09-25T00:05:42.337Z,10.85
2022-09-25T00:08:44.539Z,10.94
2022-09-25T00:11:46.828Z,10.79
2022-09-25T00:14:52.576Z,11.11
2022-09-25T00:17:54.710Z,11.28
2022-09-25T00:21:03.123Z,11.26
2022-09-25T00:24:08.407Z,11.03
2022-09-25T00:27:10.632Z,10.75
2022-09-25T00:30:14.159Z,10.57
2022-09-25T00:33:16.226Z,10.65
2022-09-25T00:36:18.305Z,10.81
2022-09-25T00:39:20.374Z,10.49
2022-09-25T00:42:22.781Z,10.31
2022-09-25T00:45:24.895Z,10.30
2022-09-25T00:48:27.012Z,10.31
2022-09-25T00:51:36.903Z,10.18
2022-09-25T00:54:52.316Z,10.18
2022-09-25T00:57:54.710Z,10.00
2022-09-25T01:00:56.837Z,9.91
2022-09-25T01:03:59.871Z,9.94
2022-09-25T01:07:02.004Z,9.99
2022-09-25T01:10:08.186Z,10.11
2022-09-25T01:13:10.551Z,10.30
2022-09-25T01:16:28.738Z,10.44
2022-09-25T01:19:38.297Z,10.52
2022-09-25T01:23:39.211Z,10.99
2022-09-25T01:27:23.833Z,10.98
2022-09-25T01:30:25.920Z,11.07
2022-09-25T01:33:35.616Z,10.33
2022-09-25T01:36:42.252Z,10.29
2022-09-25T01:39:49.314Z,10.25
2022-09-25T01:42:57.815Z,10.24
2022-09-25T01:46:02.917Z,10.08
2022-09-25T01:49:33.507Z,10.08
2022-09-25T01:52:43.318Z,10.11
2022-09-25T01:56:04.114Z,9.83
2022-09-25T01:59:29.852Z,10.28
2022-09-25T02:02:40.938Z,10.10
2022-09-25T02:05:49.822Z,9.69
2022-09-25T02:08:54.918Z,9.82
2022-09-25T02:11:59.724Z,9.65
2022-09-25T02:15:12.327Z,9.56
2022-09-25T02:18:34.687Z,9.36
2022-09-25T02:21:44.840Z,9.45
2022-09-25T02:25:18.335Z,9.64
2022-09-25T02:28:20.389Z,9.70
2022-09-25T02:31:32.071Z,9.55
2022-09-25T02:34:34.192Z,9.52
2022-09-25T02:37:36.252Z,9.52
2022-09-25T02:40:46.502Z,9.58
2022-09-25T02:44:25.195Z,9.43
2022-09-25T02:47:51.888Z,9.26
2022-09-25T02:51:12.558Z,9.12
2022-09-25T02:54:22.081Z,8.94
2022-09-25T02:57:56.073Z,8.81
2022-09-25T03:00:58.254Z,8.70
2022-09-25T03:04:00.495Z,8.70
2022-09-25T03:07:02.639Z,8.82
2022-09-25T03:10:05.155Z,8.84
2022-09-25T03:13:22.291Z,8.74
2022-09-25T03:16:51.426Z,8.81
2022-09-25T03:19:53.639Z,8.90
2022-09-25T03:22:58.058Z,8.95
2022-09-25T03:26:00.132Z,8.89
2022-09-25T03:29:02.502Z,8.73
2022-09-25T03:32:04.783Z,8.81
2022-09-25T03:35:07.316Z,8.69
2022-09-25T03:38:10.634Z,8.68
2022-09-25T03:41:21.382Z,8.67
2022-09-25T03:44:23.546Z,8.56
2022-09-25T03:47:25.667Z,8.56
2022-09-25T03:50:27.813Z,8.48
2022-09-25T03:53:33.620Z,8.44
2022-09-25T03:56:35.766Z,8.48
2022-09-25T03:59:37.795Z,8.49
2022-09-25T04:02:39.951Z,8.44
2022-09-25T04:05:43.252Z,8.52
2022-09-25T04:08:45.916Z,8.58
2022-09-25T04:11:47.988Z,8.58
2022-09-25T04:14:50.059Z,8.63
2022-09-25T04:17:55.091Z,8.79
2022-09-25T04:21:05.312Z,8.77
2022-09-25T04:24:26.059Z,8.88
2022-09-25T04:27:28.175Z,8.85
2022-09-25T04:30:30.364Z,8.98
2022-09-25T04:33:48.294Z,9.01
2022-09-25T04:36:50.578Z,9.15
2022-09-25T04:39:56.579Z,9.52
2022-09-25T04:43:00.046Z,8.94
2022-09-25T04:46:07.082Z,8.81
2022-09-25T04:49:09.258Z,8.85
2022-09-25T04:52:16.148Z,8.81
2022-09-25T04:55:19.141Z,8.88
2022-09-25T04:58:21.426Z,8.93
2022-09-25T05:01:23.924Z,9.02
2022-09-25T05:04:26.099Z,9.11
2022-09-25T05:07:28.436Z,8.97
2022-09-25T05:10:36.689Z,9.03
2022-09-25T05:13:38.711Z,8.97
2022-09-25T05:16:40.871Z,9.01
2022-09-25T05:19:42.956Z,8.99
2022-09-25T05:22:45.002Z,9.03
2022-09-25T05:26:00.683Z,8.95
2022-09-25T05:29:02.952Z,8.82
2022-09-25T05:32:05.019Z,8.88
2022-09-25T05:35:07.906Z,8.68
2022-09-25T05:38:09.954Z,8.80
2022-09-25T05:41:12.136Z,9.05
2022-09-25T05:44:14.948Z,9.07
2022-09-25T05:47:17.193Z,9.05
2022-09-25T05:50:19.210Z,8.88
2022-09-25T05:53:21.270Z,8.86
2022-09-25T05:56:26.226Z,8.87
2022-09-25T05:59:28.851Z,8.88
2022-09-25T06:02:30.924Z,8.75
2022-09-25T06:05:33.013Z,8.84
2022-09-25T06:08:35.774Z,8.73
2022-09-25T06:11:37.905Z,8.68
2022-09-25T06:14:41.036Z,8.59
2022-09-25T06:17:43.203Z,8.48
2022-09-25T06:20:45.272Z,8.68
2022-09-25T06:23:48.668Z,8.52
2022-09-25T06:26:50.776Z,8.73
2022-09-25T06:29:52.871Z,8.79
2022-09-25T06:32:58.493Z,8.55
2022-09-25T06:36:00.904Z,8.35
2022-09-25T06:39:03.383Z,8.40
2022-09-25T06:42:05.590Z,8.32
2022-09-25T06:45:08.955Z,8.46
2022-09-25T06:48:13.650Z,8.56
2022-09-25T06:51:15.706Z,8.62
2022-09-25T06:54:17.990Z,8.61
2022-09-25T06:57:20.035Z,8.91
2022-09-25T07:00:22.098Z,9.00
2022-09-25T07:03:42.869Z,9.35
2022-09-25T07:06:45.831Z,9.77
2022-09-25T07:09:48.484Z,10.13
2022-09-25T07:12:51.109Z,10.15
2022-09-25T07:16:01.288Z,10.23
2022-09-25T07:19:04.422Z,10.18
2022-09-25T07:22:06.927Z,10.37
2022-09-25T07:25:10.036Z,10.53
2022-09-25T07:28:15.912Z,10.19
2022-09-25T07:31:26.094Z,10.67
2022-09-25T07:34:28.200Z,10.58
2022-09-25T07:37:31.370Z,10.68
2022-09-25T07:40:35.510Z,10.42
2022-09-25T07:43:38.811Z,10.54
2022-09-25T07:46:43.514Z,10.84
2022-09-25T07:49:46.593Z,10.66
2022-09-25T07:52:48.619Z,10.95
2022-09-25T07:55:51.179Z,10.93
2022-09-25T07:58:53.960Z,11.00
2022-09-25T08:01:58.175Z,11.12
2022-09-25T08:05:00.419Z,11.19
2022-09-25T08:08:03.107Z,11.29
2022-09-25T08:11:07.522Z,11.78
2022-09-25T08:14:11.327Z,11.41
2022-09-25T08:17:14.678Z,11.48
2022-09-25T08:20:17.033Z,11.42
2022-09-25T08:23:19.088Z,11.56
2022-09-25T08:26:21.977Z,11.93
2022-09-25T08:29:24.789Z,11.80
2022-09-25T08:32:26.823Z,12.13
2022-09-25T08:35:28.910Z,12.03
2022-09-25T08:38:33.225Z,12.12
2022-09-25T08:41:56.756Z,12.04
2022-09-25T08:45:22.204Z,12.59
2022-09-25T08:49:02.588Z,12.30
2022-09-25T08:52:08.452Z,12.30
2022-09-25T08:55:22.364Z,12.33
2022-09-25T08:58:31.811Z,12.26
2022-09-25T09:01:55.901Z,12.25
2022-09-25T09:05:01.116Z,12.19
2022-09-25T09:08:07.812Z,11.77
2022-09-25T09:11:18.722Z,12.16
2022-09-25T09:14:21.093Z,12.33
2022-09-25T09:17:27.156Z,12.03
2022-09-25T09:20:57.313Z,12.38
2022-09-25T09:24:08.094Z,12.30
2022-09-25T09:27:43.912Z,12.28
2022-09-25T09:31:14.348Z,12.08
2022-09-25T09:35:04.330Z,12.25
2022-09-25T09:38:21.230Z,12.29
2022-09-25T09:41:34.225Z,12.40
2022-09-25T09:45:00.819Z,12.88
2022-09-25T09:48:37.546Z,12.63
2022-09-25T09:52:12.179Z,12.77
2022-09-25T09:55:59.048Z,12.67
2022-09-25T09:59:18.135Z,12.83
2022-09-25T10:02:38.278Z,13.16
2022-09-25T10:05:47.619Z,13.06
2022-09-25T10:08:49.952Z,13.10
2022-09-25T10:12:00.613Z,12.92
2022-09-25T10:15:07.398Z,12.89
2022-09-25T10:18:09.553Z,12.76
2022-09-25T10:21:21.291Z,12.91
2022-09-25T10:24:52.407Z,12.72
2022-09-25T10:27:54.509Z,13.18
2022-09-25T10:30:57.060Z,12.87
2022-09-25T10:34:02.266Z,13.02
2022-09-25T10:37:21.167Z,13.05
2022-09-25T10:40:35.146Z,13.52
2022-09-25T10:44:02.132Z,13.57
2022-09-25T10:47:37.668Z,13.44
2022-09-25T10:50:39.698Z,13.76
2022-09-25T10:53:41.798Z,13.75
2022-09-25T10:56:44.159Z,14.22
2022-09-25T10:59:51.219Z,13.80
2022-09-25T11:03:00.806Z,13.82
2022-09-25T11:06:20.909Z,14.02
2022-09-25T11:09:24.105Z,14.19
2022-09-25T11:12:28.636Z,14.18
2022-09-25T11:15:30.690Z,14.05
2022-09-25T11:18:45.632Z,14.53
2022-09-25T11:22:20.620Z,14.31
2022-09-25T11:26:12.865Z,14.04
2022-09-25T11:29:23.576Z,14.10
2022-09-25T11:32:40.665Z,13.62
2022-09-25T11:35:43.411Z,13.94
2022-09-25T11:39:12.240Z,14.81
2022-09-25T11:42:27.015Z,14.55
2022-09-25T11:45:36.798Z,14.88
2022-09-25T11:49:02.444Z,16.04
2022-09-25T11:52:41.004Z,15.73
2022-09-25T11:56:22.824Z,16.39
2022-09-25T11:59:57.963Z,15.81
2022-09-25T12:03:14.988Z,14.78
2022-09-25T12:06:34.615Z,14.35
2022-09-25T12:10:05.044Z,14.43
2022-09-25T12:13:35.124Z,14.53
2022-09-25T12:17:15.843Z,14.91
2022-09-25T12:20:35.501Z,14.66
2022-09-25T12:23:50.086Z,14.57
2022-09-25T12:27:21.382Z,14.76
2022-09-25T12:30:26.947Z,14.73
2022-09-25T12:33:47.110Z,15.33
2022-09-25T12:37:23.095Z,14.25
2022-09-25T12:41:00.786Z,14.32
2022-09-25T12:44:27.462Z,14.42
2022-09-25T12:47:41.575Z,14.79
2022-09-25T12:51:04.292Z,15.03
2022-09-25T12:54:24.232Z,15.82
2022-09-25T12:58:10.422Z,14.84
2022-09-25T13:01:45.574Z,14.73
2022-09-25T13:05:44.233Z,14.74
2022-09-25T13:08:58.012Z,14.98
2022-09-25T13:12:16.919Z,15.01
2022-09-25T13:15:25.327Z,15.24
2022-09-25T13:18:30.450Z,15.26
2022-09-25T13:21:37.860Z,15.41
2022-09-25T13:25:13.747Z,16.32
2022-09-25T13:28:26.437Z,17.24
2022-09-25T13:31:37.149Z,17.52
2022-09-25T13:34:40.159Z,17.43
2022-09-25T13:37:42.227Z,16.14
2022-09-25T13:40:45.794Z,15.67
2022-09-25T13:43:49.547Z,16.36
2022-09-25T13:46:51.628Z,16.18
2022-09-25T13:50:12.044Z,15.90
2022-09-25T13:53:22.910Z,15.50
2022-09-25T13:56:29.107Z,17.17
2022-09-25T13:59:38.131Z,16.96
2022-09-25T14:02:44.441Z,17.65
2022-09-25T14:05:46.556Z,17.69
2022-09-25T14:08:48.698Z,16.39
2022-09-25T14:12:33.503Z,18.46
2022-09-25T14:15:37.541Z,18.04
2022-09-25T14:18:42.908Z,16.11
2022-09-25T14:21:45.360Z,14.39
2022-09-25T14:24:47.760Z,14.77
2022-09-25T14:27:53.992Z,14.53
2022-09-25T14:31:33.247Z,14.24
2022-09-25T14:34:55.591Z,14.09
2022-09-25T14:38:20.552Z,14.09
2022-09-25T14:42:03.130Z,14.22
2022-09-25T14:45:27.034Z,13.65
2022-09-25T14:48:44.920Z,13.91
2022-09-25T14:51:47.256Z,13.60
2022-09-25T14:54:49.316Z,13.40
2022-09-25T14:57:51.391Z,13.76
2022-09-25T15:00:56.481Z,13.82
2022-09-25T15:04:04.856Z,13.98
2022-09-25T15:07:22.948Z,14.00
2022-09-25T15:10:37.041Z,14.47
2022-09-25T15:13:39.143Z,14.07
2022-09-25T15:17:00.030Z,13.58
2022-09-25T15:20:05.743Z,13.71
2022-09-25T15:23:15.157Z,13.66
2022-09-25T15:26:18.516Z,13.51
2022-09-25T15:29:21.957Z,13.42
2022-09-25T15:32:46.077Z,13.23
2022-09-25T15:35:58.346Z,13.76
2022-09-25T15:39:02.890Z,13.31
2022-09-25T15:42:05.878Z,13.80
2022-09-25T15:45:38.272Z,13.61
2022-09-25T15:48:55.617Z,13.24
2022-09-25T15:52:01.064Z,13.12
2022-09-25T15:55:12.816Z,13.30
2022-09-25T15:58:15.598Z,13.20
2022-09-25T16:01:42.901Z,13.28
2022-09-25T16:04:49.807Z,13.38
2022-09-25T16:07:52.006Z,13.32
2022-09-25T16:11:06.671Z,13.07
2022-09-25T16:14:35.126Z,13.20
2022-09-25T16:17:41.452Z,13.24
2022-09-25T16:20:43.531Z,13.08
2022-09-25T16:24:07.490Z,12.94
2022-09-25T16:27:33.183Z,13.33
2022-09-25T16:30:35.378Z,13.48
2022-09-25T16:33:48.609Z,13.43
2022-09-25T16:36:51.505Z,13.38
2022-09-25T16:40:18.814Z,13.32
2022-09-25T16:43:27.584Z,13.23
2022-09-25T16:46:31.034Z,13.08
2022-09-25T16:49:34.168Z,13.28
2022-09-25T16:52:36.242Z,13.36
2022-09-25T16:55:47.663Z,13.25
2022-09-25T16:58:49.965Z,13.07
2022-09-25T17:01:53.635Z,13.15
2022-09-25T17:04:55.860Z,13.17
2022-09-25T17:08:01.196Z,13.01
2022-09-25T17:11:03.288Z,13.09
2022-09-25T17:14:06.867Z,12.99
2022-09-25T17:17:10.349Z,13.14
2022-09-25T17:20:13.395Z,13.09
2022-09-25T17:23:16.521Z,13.06
2022-09-25T17:26:23.351Z,12.90
2022-09-25T17:29:25.399Z,12.88
2022-09-25T17:32:29.470Z,13.12
2022-09-25T17:35:59.088Z,12.92
2022-09-25T17:39:01.431Z,13.11
2022-09-25T17:42:04.142Z,13.04
2022-09-25T17:45:24.268Z,13.21
2022-09-25T17:48:29.459Z,12.98
2022-09-25T17:51:31.639Z,13.05
2022-09-25T17:54:33.669Z,13.27
2022-09-25T17:57:35.849Z,13.12
2022-09-25T18:00:37.905Z,12.89
2022-09-25T18:03:40.006Z,12.89
2022-09-25T18:06:43.516Z,12.97
2022-09-25T18:09:45.568Z,12.86
2022-09-25T18:12:47.678Z,12.88
2022-09-25T18:16:00.050Z,12.87
2022-09-25T18:19:20.598Z,12.85
2022-09-25T18:22:25.468Z,12.61
2022-09-25T18:25:28.923Z,12.74
2022-09-25T18:28:31.274Z,12.54
2022-09-25T18:31:34.036Z,12.67
2022-09-25T18:34:36.155Z,12.53
2022-09-25T18:37:38.278Z,12.49
2022-09-25T18:40:40.389Z,12.54
2022-09-25T18:43:43.077Z,12.49
2022-09-25T18:46:45.507Z,12.65
2022-09-25T18:49:48.788Z,12.88
2022-09-25T18:52:51.248Z,12.86
2022-09-25T18:55:54.920Z,12.88
2022-09-25T18:58:57.027Z,12.65
2022-09-25T19:02:00.222Z,12.70
2022-09-25T19:05:02.439Z,12.74
2022-09-25T19:08:05.131Z,12.77
2022-09-25T19:11:15.570Z,12.77
2022-09-25T19:14:17.728Z,12.86
2022-09-25T19:17:20.093Z,12.85
2022-09-25T19:20:22.338Z,12.73
2022-09-25T19:23:25.695Z,12.74
2022-09-25T19:26:28.068Z,12.58
2022-09-25T19:29:30.171Z,12.70
2022-09-25T19:32:32.289Z,12.48
2022-09-25T19:35:34.359Z,12.62
2022-09-25T19:38:37.790Z,12.72
2022-09-25T19:41:41.113Z,12.62
2022-09-25T19:44:43.914Z,12.60
2022-09-25T19:47:45.960Z,12.53
2022-09-25T19:50:48.043Z,12.66
2022-09-25T19:53:50.292Z,12.51
2022-09-25T19:56:52.520Z,12.67
2022-09-25T19:59:54.608Z,12.66
2022-09-25T20:02:56.839Z,12.62
2022-09-25T20:06:02.235Z,12.61
2022-09-25T20:09:04.663Z,12.52
2022-09-25T20:12:06.775Z,12.41
2022-09-25T20:15:09.360Z,12.57
2022-09-25T20:18:11.417Z,12.55
2022-09-25T20:21:15.184Z,12.63
2022-09-25T20:24:18.143Z,12.76
2022-09-25T20:27:23.350Z,12.63
2022-09-25T20:30:25.919Z,12.65
2022-09-25T20:33:33.906Z,12.71
2022-09-25T20:36:39.081Z,12.68
2022-09-25T20:39:41.255Z,12.48
2022-09-25T20:42:43.498Z,12.58
2022-09-25T20:46:04.136Z,12.75
2022-09-25T20:49:08.699Z,12.47
2022-09-25T20:52:12.516Z,12.35
2022-09-25T20:55:16.124Z,12.33
2022-09-25T20:58:18.661Z,12.24
2022-09-25T21:01:24.150Z,12.36
2022-09-25T21:04:27.370Z,12.22
2022-09-25T21:07:29.571Z,12.20
2022-09-25T21:10:36.107Z,12.14
2022-09-25T21:13:39.276Z,12.27
2022-09-25T21:16:41.503Z,12.21
2022-09-25T21:19:43.795Z,12.40
2022-09-25T21:22:45.995Z,12.42
2022-09-25T21:25:48.236Z,12.40
2022-09-25T21:28:52.245Z,12.63
2022-09-25T21:31:55.746Z,12.68
2022-09-25T21:34:57.858Z,12.61
2022-09-25T21:37:59.962Z,12.65
2022-09-25T21:41:03.718Z,12.62
2022-09-25T21:44:11.597Z,12.55
2022-09-25T21:47:13.911Z,12.59
2022-09-25T21:50:16.173Z,12.58
2022-09-25T21:53:18.230Z,12.53
2022-09-25T21:56:22.942Z,12.59
2022-09-25T21:59:25.150Z,12.47
2022-09-25T22:02:31.380Z,12.52
2022-09-25T22:05:33.756Z,12.68
2022-09-25T22:08:37.174Z,12.61
2022-09-25T22:11:39.730Z,12.60
2022-09-25T22:14:41.809Z,12.63
2022-09-25T22:17:43.927Z,12.69
2022-09-25T22:20:46.035Z,12.66
2022-09-25T22:23:48.172Z,12.50
2022-09-25T22:26:51.714Z,12.32
2022-09-25T22:29:53.778Z,12.30
2022-09-25T22:32:55.830Z,12.30
2022-09-25T22:36:01.943Z,12.27
2022-09-25T22:39:05.432Z,12.39
2022-09-25T22:42:07.613Z,12.46
2022-09-25T22:45:10.195Z,12.25
2022-09-25T22:48:12.248Z,12.26
2022-09-25T22:51:17.062Z,12.43
2022-09-25T22:54:19.771Z,12.43
2022-09-25T22:57:21.826Z,12.36
2022-09-25T23:00:23.885Z,12.45
2022-09-25T23:03:26.010Z,12.36
2022-09-25T23:06:29.608Z,12.49
2022-09-25T23:09:31.775Z,12.45
2022-09-25T23:12:33.912Z,12.35
2022-09-25T23:15:39.696Z,12.52
2022-09-25T23:18:41.762Z,12.54
2022-09-25T23:21:44.011Z,12.44
2022-09-25T23:24:46.076Z,12.60
2022-09-25T23:27:48.173Z,12.62
2022-09-25T23:30:50.293Z,12.68
2022-09-25T23:33:52.402Z,13.03
2022-09-25T23:36:54.492Z,12.67
2022-09-25T23:39:56.585Z,12.80
2022-09-25T23:42:58.736Z,12.75
2022-09-25T23:46:01.103Z,12.73
2022-09-25T23:49:03.342Z,12.03
2022-09-25T23:52:05.384Z,12.13
2022-09-25T23:55:07.892Z,11.84
2022-09-25T23:58:10.357Z,11.60
